This is the latest recevied weather packets stored in our database for station/object KC5EZZ-4. If no packets are shown the sender has not sent any weather packets the latest 10 day(s).
| Time | Temp. | Humidity | Pressure | Rain* | Wind** | Luminosity | Snow |
|---|---|---|---|---|---|---|---|
| 1777801689 | 8.89° C | - | - | 0 mm | 0 m/s | - | - |
| 1777801390 | 8.89° C | - | - | 0 mm | 0 m/s | - | - |
| 1777801091 | 8.89° C | - | - | 0 mm | 0 m/s | - | - |
| 1777800188 | 8.89° C | - | - | 0 mm | 0 m/s | - | - |
| 1777799886 | 8.89° C | - | - | 0 mm | 0 m/s | - | - |
| 1777799587 | 8.89° C | - | - | 0 mm | 0 m/s | - | - |
| 1777799288 | 8.89° C | - | - | 0 mm | 0 m/s | - | - |
| 1777798984 | 8.89° C | - | - | 0 mm | 0.45 m/s, 181° | - | - |
| 1777798685 | 8.89° C | - | - | 0 mm | 0 m/s | - | - |
| 1777798386 | 8.89° C | - | - | 0 mm | 0 m/s | - | - |
| 1777798084 | 8.89° C | - | - | 0 mm | 0 m/s | - | - |
| 1777797181 | 10° C | - | - | 0 mm | 0.89 m/s, 204° | - | - |
| 1777796882 | 10° C | - | - | 0 mm | 1.34 m/s, 172° | - | - |
| 1777795681 | 10.56° C | - | - | 0 mm | 1.34 m/s, 162° | - | - |
| 1777795375 | 10.56° C | - | - | 0 mm | 1.34 m/s, 183° | - | - |
| 1777794775 | 10.56° C | - | - | 0 mm | 1.34 m/s, 190° | - | - |
| 1777794473 | 10.56° C | - | - | 0 mm | 1.79 m/s, 167° | - | - |
| 1777794174 | 10.56° C | - | - | 0 mm | 2.24 m/s, 167° | - | - |
| 1777793874 | 10.56° C | - | - | 0 mm | 2.24 m/s, 176° | - | - |
| 1777793572 | 10.56° C | - | - | 0 mm | 2.24 m/s, 166° | - | - |
| 1777792973 | 10.56° C | - | - | 0 mm | 1.79 m/s, 174° | - | - |
| 1777792671 | 11.11° C | - | - | 0 mm | 2.24 m/s, 153° | - | - |
| 1777792372 | 11.11° C | - | - | 0 mm | 2.24 m/s, 156° | - | - |
| 1777792072 | 11.11° C | - | - | 0 mm | 2.24 m/s, 150° | - | - |
| 1777791770 | 11.11° C | - | - | 0 mm | 1.79 m/s, 174° | - | - |
* Rain latest hour (hover to see other rain measurements)
** Current wind speed in m/s (hover to see current wind gust speed)